Time;durP1;ratioP1;P1;durP2;ratioP2;P2;SDS_P1;SDS_P2;PMS_P1;PMS_P2;Temp;Humidity;BMP_temperature;BMP_pressure;BME280_temperature;BME280_humidity;BME280_pressure;Samples;Min_cycle;Max_cycle;Signal;HPM_P1;HPM_P2
2021/03/31 00:01:39;;;;;;;7.22;4.57;;;;;;;10.32;42.42;99845.94;5054458;28;20359;-60
2021/03/31 00:04:06;;;;;;;10.75;5.38;;;;;;;10.21;42.50;99837.50;5054371;28;20098;-61
2021/03/31 00:06:32;;;;;;;6.90;5.00;;;;;;;10.12;42.75;99834.84;5054410;28;20061;-62
2021/03/31 00:08:59;;;;;;;5.65;4.30;;;;;;;10.09;42.78;99832.53;5054491;28;20041;-62
2021/03/31 00:11:26;;;;;;;8.65;4.88;;;;;;;10.04;43.12;99828.72;5054473;28;20037;-62
2021/03/31 00:13:58;;;;;;;11.55;5.00;;;;;;;9.99;43.04;99825.75;5054368;28;20055;-62
2021/03/31 00:16:25;;;;;;;6.75;4.40;;;;;;;10.00;43.39;99825.59;5054309;28;20041;-61
2021/03/31 00:18:52;;;;;;;7.05;4.55;;;;;;;10.09;43.29;99821.97;5054348;28;20041;-62
2021/03/31 00:21:18;;;;;;;9.13;4.68;;;;;;;10.11;43.29;99830.53;5054116;28;20063;-61
2021/03/31 00:23:45;;;;;;;6.90;4.82;;;;;;;10.05;43.28;99819.81;5054368;28;20040;-61
2021/03/31 00:26:12;;;;;;;6.32;4.53;;;;;;;10.03;43.26;99816.50;5054974;28;20049;-62
2021/03/31 00:28:39;;;;;;;7.20;4.65;;;;;;;9.95;43.32;99821.78;5054021;28;20041;-62
2021/03/31 00:31:06;;;;;;;7.65;4.20;;;;;;;9.96;43.26;99821.63;5054000;28;20041;-61
2021/03/31 00:33:33;;;;;;;5.45;3.92;;;;;;;10.00;43.10;99816.81;5053977;28;20048;-62
2021/03/31 00:36:00;;;;;;;7.60;4.40;;;;;;;10.04;42.92;99821.63;5053875;28;20051;-63
2021/03/31 00:38:27;;;;;;;6.32;3.83;;;;;;;10.07;42.67;99823.09;5053720;28;20041;-61
2021/03/31 00:40:55;;;;;;;7.03;4.90;;;;;;;10.04;42.76;99813.72;5053369;28;20412;-60
2021/03/31 00:43:22;;;;;;;7.13;4.50;;;;;;;9.95;42.95;99817.31;5054010;28;20045;-60
2021/03/31 00:45:50;;;;;;;5.95;4.53;;;;;;;9.88;43.49;99821.63;5053850;28;20120;-61
2021/03/31 00:48:18;;;;;;;10.15;5.35;;;;;;;9.94;43.60;99815.66;5053901;28;20048;-62
2021/03/31 00:50:46;;;;;;;9.35;4.18;;;;;;;9.97;43.66;99814.53;5053937;28;20043;-61
2021/03/31 00:53:17;;;;;;;9.75;5.15;;;;;;;9.87;44.26;99812.03;5054436;28;20051;-61
2021/03/31 00:55:45;;;;;;;7.47;4.82;;;;;;;9.73;44.75;99810.84;5054337;28;20037;-61
2021/03/31 00:58:12;;;;;;;7.35;4.20;;;;;;;9.66;45.07;99809.84;5053075;28;20052;-61
2021/03/31 01:00:39;;;;;;;8.23;4.97;;;;;;;9.64;45.37;99810.03;5053554;28;20101;-61
2021/03/31 01:03:06;;;;;;;9.77;5.68;;;;;;;9.70;45.53;99805.91;5053759;28;20140;-61
2021/03/31 01:05:34;;;;;;;8.70;5.18;;;;;;;9.76;45.22;99805.25;5052318;28;20507;-62
2021/03/31 01:08:03;;;;;;;9.85;5.28;;;;;;;9.70;45.33;99803.25;5053318;28;20060;-61
2021/03/31 01:10:32;;;;;;;11.73;5.85;;;;;;;9.59;45.54;99799.13;5053529;28;20491;-62
2021/03/31 01:13:23;;;;;;;8.40;5.72;;;;;;;9.45;45.94;99793.63;5053366;28;20048;-61
2021/03/31 01:15:54;;;;;;;10.95;5.65;;;;;;;9.30;46.22;99796.06;5053081;28;20052;-61
2021/03/31 01:18:29;;;;;;;12.63;5.97;;;;;;;9.26;46.46;99792.09;5053283;28;20045;-61
2021/03/31 01:21:23;;;;;;;8.38;5.38;;;;;;;9.23;46.27;99793.25;5053166;28;20055;-62
2021/03/31 01:24:09;;;;;;;9.90;5.35;;;;;;;9.15;46.19;99790.59;5052089;28;20053;-62
2021/03/31 01:26:43;;;;;;;8.75;4.78;;;;;;;9.09;46.21;99785.94;5053789;28;20049;-61
2021/03/31 01:29:40;;;;;;;7.25;4.88;;;;;;;9.05;46.16;99774.03;5053993;28;20055;-62
2021/03/31 01:32:20;;;;;;;7.78;4.75;;;;;;;8.99;46.17;99772.88;5053868;28;20037;-62
2021/03/31 01:34:51;;;;;;;9.07;5.38;;;;;;;8.96;46.36;99769.72;5062332;28;20049;-62
2021/03/31 01:37:24;;;;;;;10.80;6.40;;;;;;;8.95;46.44;99768.91;5071191;28;20051;-63
2021/03/31 01:39:53;;;;;;;10.90;5.20;;;;;;;8.94;46.63;99769.91;5070085;28;20044;-59
2021/03/31 01:42:22;;;;;;;8.23;4.68;;;;;;;9.01;46.43;99764.78;5064081;28;20044;-63
2021/03/31 01:45:04;;;;;;;6.05;4.00;;;;;;;9.05;46.40;99763.50;5052815;28;20049;-63
2021/03/31 01:47:39;;;;;;;6.30;4.38;;;;;;;9.07;46.09;99754.44;5052612;28;20045;-62
2021/03/31 01:50:09;;;;;;;9.35;4.95;;;;;;;9.08;45.80;99761.38;5052459;28;20056;-63
2021/03/31 01:52:37;;;;;;;9.20;5.60;;;;;;;8.95;46.31;99763.63;5051931;28;20495;-62
2021/03/31 01:55:06;;;;;;;11.18;5.38;;;;;;;8.88;46.50;99767.88;5052610;28;20116;-62
2021/03/31 01:57:34;;;;;;;10.13;5.53;;;;;;;8.84;46.64;99756.00;5052458;28;20095;-62
2021/03/31 02:00:06;;;;;;;8.90;5.47;;;;;;;8.87;46.97;99761.78;5052349;28;20563;-62
2021/03/31 02:02:39;;;;;;;10.82;5.65;;;;;;;8.87;46.80;99753.88;5052654;28;20053;-61
2021/03/31 02:05:10;;;;;;;12.45;5.40;;;;;;;8.91;46.98;99749.09;5052524;28;20044;-61
2021/03/31 02:07:39;;;;;;;11.30;5.63;;;;;;;8.91;47.04;99752.56;5052338;28;20064;-63
2021/03/31 02:10:09;;;;;;;9.18;5.78;;;;;;;8.89;46.97;99743.97;5052351;28;20052;-61
2021/03/31 02:12:39;;;;;;;12.02;6.28;;;;;;;8.85;46.82;99747.91;5052525;28;20043;-61
2021/03/31 02:15:07;;;;;;;13.07;6.57;;;;;;;8.72;47.40;99749.34;5052842;28;20047;-61
2021/03/31 02:17:37;;;;;;;12.18;5.40;;;;;;;8.68;47.99;99748.81;5053360;28;20049;-61
2021/03/31 02:20:06;;;;;;;9.85;5.57;;;;;;;8.70;48.04;99740.78;5053611;28;20041;-61
2021/03/31 02:22:35;;;;;;;12.57;5.68;;;;;;;8.64;48.38;99737.75;5052637;28;20235;-61
2021/03/31 02:25:04;;;;;;;8.52;4.82;;;;;;;8.66;48.60;99738.44;5052023;28;20045;-61
2021/03/31 02:27:32;;;;;;;7.80;5.05;;;;;;;8.79;48.38;99742.47;5052354;28;20049;-60
2021/03/31 02:29:59;;;;;;;10.60;5.30;;;;;;;8.88;48.24;99747.59;5052006;28;20041;-61
2021/03/31 02:32:27;;;;;;;11.07;5.60;;;;;;;8.99;47.86;99743.88;5051875;28;20432;-60
2021/03/31 02:34:56;;;;;;;11.27;5.57;;;;;;;8.93;47.56;99740.03;5051767;28;20048;-61
2021/03/31 02:37:24;;;;;;;9.55;5.03;;;;;;;8.84;48.20;99745.44;5051895;28;20045;-61
2021/03/31 02:39:53;;;;;;;8.57;4.88;;;;;;;8.90;48.16;99736.91;5052355;28;20053;-60
2021/03/31 02:42:22;;;;;;;6.93;4.70;;;;;;;8.91;48.10;99733.28;5052226;28;20048;-61
2021/03/31 02:44:53;;;;;;;8.75;5.25;;;;;;;8.74;48.15;99732.41;5051550;28;20465;-60
2021/03/31 02:47:23;;;;;;;9.55;5.55;;;;;;;8.62;48.53;99734.47;5051737;28;20063;-64
2021/03/31 02:49:53;;;;;;;8.50;4.93;;;;;;;8.51;49.06;99729.47;5051595;28;20127;-61
2021/03/31 02:52:23;;;;;;;7.38;5.07;;;;;;;8.32;49.42;99738.38;5051944;28;20071;-61
2021/03/31 02:54:52;;;;;;;7.32;5.00;;;;;;;8.24;49.67;99732.22;5051615;28;20051;-61
2021/03/31 02:57:20;;;;;;;8.57;4.70;;;;;;;8.18;50.02;99733.69;5050639;28;20045;-60
2021/03/31 02:59:49;;;;;;;10.48;5.30;;;;;;;8.01;50.38;99731.94;5051476;28;20112;-60
2021/03/31 03:02:17;;;;;;;9.15;5.18;;;;;;;7.99;50.28;99726.78;5051144;28;20045;-60
2021/03/31 03:04:46;;;;;;;9.52;5.57;;;;;;;8.00;50.30;99731.09;5055722;28;20049;-62
2021/03/31 03:07:14;;;;;;;8.65;5.43;;;;;;;7.98;50.36;99726.97;5055659;28;20388;-61
2021/03/31 03:09:41;;;;;;;8.23;5.30;;;;;;;7.97;50.52;99727.94;5055501;28;20047;-61
2021/03/31 03:12:12;;;;;;;9.75;5.10;;;;;;;7.98;50.54;99719.06;5055493;28;20059;-61
2021/03/31 03:14:41;;;;;;;6.97;4.90;;;;;;;7.94;50.35;99729.06;5055434;28;20045;-62
2021/03/31 03:17:08;;;;;;;6.72;4.53;;;;;;;7.90;50.53;99725.09;5055596;28;20045;-61
2021/03/31 03:19:35;;;;;;;6.40;5.07;;;;;;;7.86;50.46;99729.81;5055345;28;20037;-61
2021/03/31 03:22:03;;;;;;;8.25;4.50;;;;;;;7.78;50.59;99719.22;5055440;28;20048;-61
2021/03/31 03:24:31;;;;;;;8.40;5.07;;;;;;;7.75;50.78;99711.63;5055430;28;20064;-62
2021/03/31 03:26:58;;;;;;;9.50;4.97;;;;;;;7.75;50.78;99716.91;5055489;28;20037;-60
2021/03/31 03:29:26;;;;;;;6.80;5.03;;;;;;;7.74;50.72;99709.16;5055468;28;20051;-60
2021/03/31 03:31:54;;;;;;;7.32;4.15;;;;;;;7.68;50.92;99719.31;5055324;28;20045;-61
2021/03/31 03:34:22;;;;;;;6.75;4.03;;;;;;;7.72;50.96;99711.13;5055107;28;20052;-61
2021/03/31 03:36:49;;;;;;;10.60;4.68;;;;;;;7.72;50.88;99709.31;5055188;28;20037;-62
2021/03/31 03:39:16;;;;;;;10.63;5.93;;;;;;;7.73;50.83;99713.59;5055104;28;20402;-60
2021/03/31 03:41:43;;;;;;;12.57;6.25;;;;;;;7.73;50.84;99708.34;5055168;28;20165;-61
2021/03/31 03:44:10;;;;;;;19.67;6.40;;;;;;;7.72;50.92;99704.06;5054965;28;20044;-61
2021/03/31 03:46:39;;;;;;;14.85;7.25;;;;;;;7.74;50.84;99709.16;5055403;28;20048;-62
2021/03/31 03:49:06;;;;;;;11.18;5.38;;;;;;;7.72;51.02;99706.69;5054822;28;20037;-61
2021/03/31 03:51:33;;;;;;;8.30;4.88;;;;;;;7.75;50.70;99709.00;5053815;28;20499;-61
2021/03/31 03:54:00;;;;;;;9.80;4.88;;;;;;;7.59;50.94;99703.59;5055096;28;20040;-61
2021/03/31 03:56:27;;;;;;;5.97;4.78;;;;;;;7.52;51.27;99711.28;5054821;28;20045;-60
2021/03/31 03:58:53;;;;;;;8.73;4.70;;;;;;;7.52;51.58;99702.56;5054721;28;20041;-61
2021/03/31 04:01:20;;;;;;;6.53;4.47;;;;;;;7.62;51.64;99704.13;5054668;28;20041;-61
2021/03/31 04:03:47;;;;;;;12.10;5.47;;;;;;;7.73;51.27;99704.88;5054869;28;20052;-62
2021/03/31 04:06:14;;;;;;;19.13;7.38;;;;;;;7.76;51.15;99708.03;5054429;28;20509;-61
2021/03/31 04:08:41;;;;;;;18.48;6.97;;;;;;;7.77;50.94;99704.44;5054682;28;20045;-62
2021/03/31 04:11:08;;;;;;;11.27;5.95;;;;;;;7.72;51.08;99700.59;5053361;28;20049;-62
2021/03/31 04:13:35;;;;;;;7.47;5.10;;;;;;;7.61;51.24;99699.84;5053949;28;20044;-62
2021/03/31 04:16:08;;;;;;;9.10;5.00;;;;;;;7.53;51.32;99699.78;5054201;28;20576;-62
2021/03/31 04:18:38;;;;;;;9.73;5.22;;;;;;;7.40;51.90;99700.16;5054323;28;20043;-62
2021/03/31 04:21:07;;;;;;;8.57;5.25;;;;;;;7.48;51.90;99701.22;5054320;28;20052;-62
2021/03/31 04:23:34;;;;;;;8.82;5.20;;;;;;;7.39;52.01;99702.94;5054454;28;20049;-62
2021/03/31 04:26:02;;;;;;;8.73;5.22;;;;;;;7.39;52.23;99705.59;5054448;28;20048;-61
2021/03/31 04:28:29;;;;;;;13.00;5.40;;;;;;;7.37;52.50;99704.88;5054182;28;20048;-62
2021/03/31 04:30:57;;;;;;;7.05;4.93;;;;;;;7.39;52.69;99695.88;5052890;28;20484;-61
2021/03/31 04:33:24;;;;;;;12.30;6.32;;;;;;;7.42;52.33;99697.38;5054165;28;20068;-61
2021/03/31 04:35:52;;;;;;;8.57;4.78;;;;;;;7.37;52.73;99703.09;5054617;28;20056;-60
2021/03/31 04:38:20;;;;;;;9.30;5.15;;;;;;;7.38;52.60;99694.22;5055235;28;20529;-62
2021/03/31 04:40:54;;;;;;;8.38;5.90;;;;;;;7.32;52.76;99696.63;5054688;28;20044;-62
2021/03/31 04:43:21;;;;;;;;;;;;;;;7.16;53.04;99700.75;5054700;28;20127;-62
2021/03/31 04:45:47;;;;;;;11.80;5.78;;;;;;;7.27;53.31;99698.88;5053700;28;19921;-61
2021/03/31 04:48:14;;;;;;;18.88;11.75;;;;;;;7.30;53.09;99698.56;5052392;28;20048;-60
2021/03/31 04:50:41;;;;;;;14.88;6.57;;;;;;;7.25;53.38;99691.13;5053707;28;20048;-61
2021/03/31 04:53:09;;;;;;;17.88;7.00;;;;;;;7.17;53.49;99699.75;5053971;28;20166;-60
2021/03/31 04:55:37;;;;;;;10.40;6.55;;;;;;;7.09;53.92;99697.03;5052430;28;20049;-61
2021/03/31 04:58:04;;;;;;;10.57;5.47;;;;;;;7.04;54.03;99695.84;5053809;28;20045;-61
2021/03/31 05:00:31;;;;;;;9.40;6.28;;;;;;;7.00;54.28;99690.06;5053579;28;20056;-61
2021/03/31 05:02:57;;;;;;;14.55;7.72;;;;;;;6.97;54.26;99695.59;5053559;28;20049;-61
2021/03/31 05:05:24;;;;;;;12.50;6.03;;;;;;;6.89;54.41;99691.06;5052271;28;20530;-60
2021/03/31 05:07:51;;;;;;;12.52;6.45;;;;;;;6.87;54.35;99695.66;5053420;28;20112;-61
2021/03/31 05:10:18;;;;;;;14.35;6.90;;;;;;;6.88;54.43;99696.50;5053429;28;20561;-60
2021/03/31 05:12:45;;;;;;;12.68;6.40;;;;;;;6.85;54.49;99694.97;5053501;28;20041;-61
2021/03/31 05:15:14;;;;;;;11.05;5.70;;;;;;;6.87;54.34;99692.22;5051942;28;20061;-62
2021/03/31 05:17:41;;;;;;;16.95;6.53;;;;;;;6.81;54.24;99705.94;5053378;28;20053;-60
2021/03/31 05:20:09;;;;;;;7.75;5.05;;;;;;;6.73;54.38;99701.41;5053264;28;20045;-61
2021/03/31 05:22:35;;;;;;;12.38;5.75;;;;;;;6.74;54.38;99700.44;5053408;28;20128;-60
2021/03/31 05:25:03;;;;;;;8.70;5.85;;;;;;;6.68;54.68;99701.84;5052917;28;20049;-61
2021/03/31 05:27:29;;;;;;;14.18;6.20;;;;;;;6.74;54.67;99699.63;5053328;28;20033;-61
2021/03/31 05:29:57;;;;;;;8.70;5.88;;;;;;;6.76;54.74;99692.41;5053424;28;20037;-61
2021/03/31 05:32:24;;;;;;;11.45;6.50;;;;;;;6.78;54.52;99690.47;5056791;28;20053;-62
2021/03/31 05:34:51;;;;;;;11.07;6.43;;;;;;;6.70;54.59;99696.47;5063955;28;20049;-60
2021/03/31 05:37:17;;;;;;;12.38;7.30;;;;;;;6.69;55.01;99685.13;5063263;28;20051;-60
2021/03/31 05:39:44;;;;;;;12.50;6.53;;;;;;;6.76;54.94;99687.16;5054232;28;20049;-62
2021/03/31 05:42:11;;;;;;;8.23;5.70;;;;;;;6.87;54.86;99689.59;5053307;28;20072;-61
2021/03/31 05:44:38;;;;;;;9.38;5.55;;;;;;;6.97;54.36;99684.25;5053312;28;20047;-62
2021/03/31 05:47:09;;;;;;;10.27;5.85;;;;;;;6.91;54.91;99689.13;5053153;28;20052;-61
2021/03/31 05:49:38;;;;;;;16.48;9.25;;;;;;;7.06;54.58;99688.63;5053067;28;20065;-63
2021/03/31 05:52:08;;;;;;;27.73;10.23;;;;;;;7.07;54.55;99692.94;5052908;28;20045;-62
2021/03/31 05:54:34;;;;;;;21.85;8.70;;;;;;;7.12;54.67;99690.69;5052475;28;20043;-62
2021/03/31 05:57:01;;;;;;;30.73;8.30;;;;;;;7.28;54.49;99693.47;5052773;28;20040;-62
2021/03/31 05:59:29;;;;;;;27.73;9.25;;;;;;;7.41;54.27;99693.09;5052436;28;20045;-62
2021/03/31 06:01:55;;;;;;;40.83;11.07;;;;;;;7.50;53.76;99700.06;5052546;28;20045;-62
2021/03/31 06:04:23;;;;;;;29.88;9.57;;;;;;;7.55;53.94;99699.63;5051293;28;20083;-62
2021/03/31 06:06:50;;;;;;;20.10;7.55;;;;;;;7.68;53.71;99700.91;5052580;28;20407;-62
2021/03/31 06:09:17;;;;;;;23.40;7.35;;;;;;;7.76;53.34;99701.97;5052199;28;20041;-62
2021/03/31 06:11:48;;;;;;;18.98;7.78;;;;;;;7.83;53.20;99697.72;5052369;28;20045;-62
2021/03/31 06:14:27;;;;;;;22.95;7.85;;;;;;;7.72;53.01;99693.53;5052345;28;20048;-60
2021/03/31 06:17:06;;;;;;;27.23;7.80;;;;;;;7.70;53.48;99698.09;5052520;28;20423;-62
2021/03/31 06:19:34;;;;;;;19.77;7.90;;;;;;;7.77;53.24;99703.59;5052322;28;20044;-62
2021/03/31 06:22:13;;;;;;;22.00;7.80;;;;;;;7.78;53.24;99703.44;5052449;28;20047;-62
2021/03/31 06:24:45;;;;;;;15.32;7.50;;;;;;;7.84;53.33;99700.22;5052133;28;20098;-62
2021/03/31 06:27:12;;;;;;;16.25;7.25;;;;;;;7.91;53.08;99703.03;5052569;28;20045;-63
2021/03/31 06:29:43;;;;;;;14.10;7.82;;;;;;;7.98;53.15;99709.34;5051891;28;20044;-61
2021/03/31 06:32:18;;;;;;;13.32;6.68;;;;;;;8.10;52.82;99712.56;5052390;28;20434;-62
2021/03/31 06:34:56;;;;;;;9.55;5.57;;;;;;;8.23;52.69;99715.59;5051958;28;20064;-62
2021/03/31 06:37:26;;;;;;;15.32;5.85;;;;;;;8.40;52.27;99706.84;5051321;28;20069;-61
2021/03/31 06:39:53;;;;;;;12.60;6.00;;;;;;;8.53;52.16;99710.84;5051939;28;20102;-62
2021/03/31 06:42:21;;;;;;;11.50;4.93;;;;;;;8.61;51.85;99709.13;5051884;28;20419;-62
2021/03/31 06:44:57;;;;;;;11.55;5.20;;;;;;;8.75;51.50;99701.59;5051733;28;20483;-61
2021/03/31 06:47:29;;;;;;;9.07;5.63;;;;;;;8.89;51.29;99707.06;5051993;28;20059;-62
2021/03/31 06:49:59;;;;;;;9.23;5.78;;;;;;;9.08;50.89;99711.25;5052010;28;20052;-62
2021/03/31 06:52:26;;;;;;;7.97;5.70;;;;;;;9.22;50.65;99706.31;5051706;28;20059;-63
2021/03/31 06:54:55;;;;;;;8.45;5.90;;;;;;;9.30;50.29;99701.88;5050158;28;20491;-61
2021/03/31 06:57:26;;;;;;;12.57;7.10;;;;;;;9.36;49.99;99701.25;5051588;28;20041;-62
2021/03/31 06:59:58;;;;;;;13.90;6.45;;;;;;;9.33;49.60;99701.56;5051666;28;20403;-63
2021/03/31 07:02:26;;;;;;;13.38;7.20;;;;;;;9.27;50.10;99691.69;5051916;28;20415;-61
2021/03/31 07:04:54;;;;;;;12.95;5.70;;;;;;;9.32;49.94;99704.38;5051686;28;20458;-60
2021/03/31 07:07:31;;;;;;;7.78;5.85;;;;;;;9.46;49.84;99697.63;5050379;28;20045;-61
2021/03/31 07:10:08;;;;;;;10.50;6.50;;;;;;;9.57;49.58;99694.69;5051638;28;20045;-60
2021/03/31 07:12:40;;;;;;;10.50;6.38;;;;;;;9.66;48.98;99697.16;5051808;28;20052;-58
2021/03/31 07:15:09;;;;;;;10.85;6.72;;;;;;;9.64;49.09;99691.22;5051539;28;20041;-61
2021/03/31 07:17:38;;;;;;;14.27;7.05;;;;;;;9.67;48.95;99680.34;5051566;28;20041;-61
2021/03/31 07:20:06;;;;;;;19.63;10.60;;;;;;;9.77;48.60;99682.78;5051574;28;20043;-62
2021/03/31 07:22:34;;;;;;;18.05;9.77;;;;;;;9.87;48.62;99682.63;5051578;28;20507;-61
2021/03/31 07:25:01;;;;;;;23.38;10.65;;;;;;;10.00;48.08;99682.09;5051457;28;20458;-61
2021/03/31 07:27:29;;;;;;;15.52;8.65;;;;;;;10.05;48.33;99679.81;5049994;28;20048;-62
2021/03/31 07:30:07;;;;;;;13.68;7.43;;;;;;;10.15;48.10;99680.44;5051299;28;20033;-60
2021/03/31 07:32:40;;;;;;;13.20;6.85;;;;;;;10.26;47.66;99682.75;5051543;28;20215;-62
2021/03/31 07:35:09;;;;;;;12.10;6.93;;;;;;;10.44;47.58;99687.00;5051287;28;20041;-61
2021/03/31 07:37:37;;;;;;;16.52;8.20;;;;;;;10.59;47.05;99680.00;5051063;28;20128;-63
2021/03/31 07:40:06;;;;;;;11.55;6.80;;;;;;;10.71;46.91;99683.09;5051192;28;20036;-62
2021/03/31 07:42:33;;;;;;;11.57;7.35;;;;;;;10.88;46.39;99671.44;5051087;28;20079;-63
2021/03/31 07:45:03;;;;;;;9.77;6.72;;;;;;;10.96;45.93;99673.22;5051060;28;20128;-62
2021/03/31 07:47:31;;;;;;;13.60;6.85;;;;;;;11.05;45.70;99674.84;5049754;28;20049;-62
2021/03/31 07:49:58;;;;;;;9.20;6.10;;;;;;;11.14;45.93;99671.97;5051327;28;20529;-62
2021/03/31 07:52:51;;;;;;;10.85;7.35;;;;;;;11.33;45.36;99672.50;5054868;28;20055;-61
2021/03/31 07:55:36;;;;;;;15.23;6.97;;;;;;;11.44;45.26;99676.56;5054889;28;20045;-62
2021/03/31 07:58:25;;;;;;;13.45;6.68;;;;;;;11.58;45.18;99679.25;5054600;28;20052;-61
2021/03/31 08:00:55;;;;;;;11.65;7.50;;;;;;;11.69;44.52;99672.72;5054599;28;20044;-61
2021/03/31 08:03:24;;;;;;;15.45;7.95;;;;;;;11.76;44.51;99665.72;5054687;28;20415;-61
2021/03/31 08:06:14;;;;;;;14.85;7.72;;;;;;;11.89;44.46;99665.97;5054410;28;20052;-62
2021/03/31 08:08:59;;;;;;;18.63;9.02;;;;;;;12.08;43.76;99661.97;5054201;28;20395;-60
2021/03/31 08:11:44;;;;;;;12.30;7.40;;;;;;;12.20;43.57;99666.81;5053174;28;20506;-60
2021/03/31 08:14:13;;;;;;;11.30;7.32;;;;;;;12.33;43.68;99667.84;5054974;28;20045;-62
2021/03/31 08:16:41;;;;;;;13.20;7.72;;;;;;;12.45;43.39;99670.00;5055580;28;20037;-60
2021/03/31 08:19:13;;;;;;;11.80;8.10;;;;;;;12.67;42.93;99661.13;5055084;28;20051;-62
2021/03/31 08:21:40;;;;;;;12.38;7.97;;;;;;;12.82;42.56;99650.50;5054428;28;20072;-61
2021/03/31 08:24:10;;;;;;;14.20;9.25;;;;;;;12.95;41.76;99658.63;5054195;28;20044;-63
2021/03/31 08:26:40;;;;;;;14.75;9.38;;;;;;;13.04;41.60;99654.00;5054186;28;20387;-60
2021/03/31 08:29:09;;;;;;;13.30;8.35;;;;;;;13.14;41.40;99654.50;5054451;28;20079;-61
2021/03/31 08:31:38;;;;;;;10.60;7.47;;;;;;;13.30;41.54;99656.13;5054273;28;20124;-61
2021/03/31 08:34:07;;;;;;;14.55;9.15;;;;;;;13.45;41.04;99651.59;5054139;28;20123;-61
2021/03/31 08:36:40;;;;;;;17.33;10.52;;;;;;;13.62;40.74;99652.16;5054213;28;20051;-60
2021/03/31 08:39:08;;;;;;;21.65;9.55;;;;;;;13.78;40.59;99651.88;5054738;28;20127;-61
2021/03/31 08:41:39;;;;;;;18.45;10.63;;;;;;;13.92;40.14;99646.66;5055636;28;20499;-61
2021/03/31 08:44:16;;;;;;;18.45;11.68;;;;;;;14.14;39.91;99642.94;5054942;28;20049;-62
2021/03/31 08:46:43;;;;;;;14.27;8.93;;;;;;;14.32;39.39;99647.72;5054055;28;20136;-63
2021/03/31 08:49:21;;;;;;;22.92;14.77;;;;;;;14.44;39.24;99637.38;5053676;28;20115;-62
2021/03/31 08:51:50;;;;;;;22.25;15.52;;;;;;;14.60;38.74;99635.22;5052456;28;20466;-62
2021/03/31 08:54:17;;;;;;;14.73;10.05;;;;;;;14.74;38.38;99628.13;5053690;28;20499;-62
2021/03/31 08:56:48;;;;;;;15.40;9.40;;;;;;;14.90;38.39;99626.94;5053747;28;20037;-61
2021/03/31 08:59:29;;;;;;;15.07;9.02;;;;;;;15.06;37.82;99625.75;5053500;28;20044;-62
2021/03/31 09:01:56;;;;;;;25.27;10.52;;;;;;;15.19;37.74;99625.78;5052907;28;20075;-62
2021/03/31 09:04:25;;;;;;;16.55;10.55;;;;;;;15.32;37.58;99630.31;5051959;28;20061;-62
2021/03/31 09:06:53;;;;;;;15.38;9.88;;;;;;;15.46;37.22;99620.47;5053593;28;20461;-62
2021/03/31 09:09:19;;;;;;;19.88;9.18;;;;;;;15.57;36.58;99623.34;5053295;28;20510;-62
2021/03/31 09:11:46;;;;;;;19.00;10.15;;;;;;;15.70;36.43;99627.06;5053295;28;20049;-62
2021/03/31 09:14:18;;;;;;;23.13;10.05;;;;;;;15.84;36.49;99618.06;5053222;28;20406;-62
2021/03/31 09:16:50;;;;;;;17.65;9.50;;;;;;;16.00;35.81;99620.28;5053359;28;20483;-61
2021/03/31 09:19:38;;;;;;;18.40;9.15;;;;;;;16.11;35.71;99608.16;5053143;28;20094;-61
2021/03/31 09:22:06;;;;;;;16.67;9.57;;;;;;;16.26;35.82;99611.41;5053097;28;20053;-62
2021/03/31 09:24:34;;;;;;;17.40;8.93;;;;;;;16.44;35.80;99608.03;5054047;28;20128;-60
2021/03/31 09:27:02;;;;;;;19.40;8.32;;;;;;;16.59;35.40;99592.59;5055138;28;20041;-63
2021/03/31 09:29:31;;;;;;;16.85;8.40;;;;;;;16.76;35.21;99595.63;5056000;28;20045;-61
2021/03/31 09:32:01;;;;;;;17.60;9.50;;;;;;;16.97;35.16;99601.66;5053151;28;20491;-61
2021/03/31 09:34:30;;;;;;;16.88;7.78;;;;;;;17.13;34.83;99590.47;5053073;28;20487;-61
2021/03/31 09:37:02;;;;;;;16.88;7.78;;;;;;;17.27;34.54;99591.22;5053599;28;20391;-62
2021/03/31 09:39:41;;;;;;;14.75;7.75;;;;;;;17.44;34.53;99594.97;5052701;28;20530;-62
2021/03/31 09:42:17;;;;;;;22.38;9.07;;;;;;;17.62;34.21;99588.03;5052947;28;20041;-63
2021/03/31 09:44:45;;;;;;;13.50;6.80;;;;;;;17.81;33.56;99581.75;5052710;28;20099;-61
2021/03/31 09:47:14;;;;;;;16.27;6.82;;;;;;;18.00;33.11;99578.06;5052758;28;20037;-62
2021/03/31 09:49:44;;;;;;;12.52;6.07;;;;;;;18.14;33.13;99576.03;5052480;28;20082;-62
2021/03/31 09:52:11;;;;;;;11.90;6.55;;;;;;;18.26;32.89;99570.75;5052650;28;20056;-61
2021/03/31 09:54:38;;;;;;;11.90;5.85;;;;;;;18.31;32.84;99569.03;5052361;28;20098;-62
2021/03/31 09:57:07;;;;;;;12.55;6.35;;;;;;;18.39;32.91;99564.44;5052662;28;20044;-63
2021/03/31 09:59:34;;;;;;;13.85;5.82;;;;;;;18.59;32.35;99567.66;5052497;28;20131;-63
2021/03/31 10:02:02;;;;;;;11.23;5.78;;;;;;;18.75;32.20;99558.22;5052461;28;20517;-64
2021/03/31 10:04:34;;;;;;;11.27;5.97;;;;;;;18.92;31.51;99556.53;5053235;28;20543;-63
2021/03/31 10:07:13;;;;;;;14.77;6.35;;;;;;;19.11;31.11;99548.44;5052510;28;20384;-63
2021/03/31 10:09:56;;;;;;;13.55;5.65;;;;;;;19.19;30.85;99546.22;5052536;28;20041;-63
2021/03/31 10:12:25;;;;;;;10.75;5.75;;;;;;;19.33;30.35;99540.66;5050696;28;20447;-62
2021/03/31 10:14:55;;;;;;;12.50;5.13;;;;;;;19.48;30.37;99543.69;5052572;28;20051;-63
2021/03/31 10:17:24;;;;;;;8.88;4.82;;;;;;;19.60;30.43;99538.34;5052163;28;20051;-63
2021/03/31 10:19:52;;;;;;;10.18;4.78;;;;;;;19.67;29.91;99537.19;5052169;28;20037;-62
2021/03/31 10:22:20;;;;;;;9.48;5.72;;;;;;;19.84;29.39;99541.84;5052253;28;20044;-62
2021/03/31 10:25:22;;;;;;;8.32;5.53;;;;;;;20.01;29.49;99530.16;5051893;28;20052;-63
2021/03/31 10:28:05;;;;;;;7.60;4.63;;;;;;;20.13;28.81;99530.13;5052007;28;20099;-62
2021/03/31 10:30:52;;;;;;;7.75;4.97;;;;;;;20.21;28.95;99528.97;5052297;28;20037;-62
2021/03/31 10:33:40;;;;;;;11.18;5.53;;;;;;;20.32;28.80;99528.09;5051867;28;20045;-62
2021/03/31 10:36:07;;;;;;;9.68;5.38;;;;;;;20.44;28.28;99520.81;5051681;28;20037;-63
2021/03/31 10:38:38;;;;;;;10.43;5.40;;;;;;;20.53;28.15;99515.91;5051843;28;20120;-61
2021/03/31 10:41:40;;;;;;;8.15;5.30;;;;;;;20.61;27.99;99515.50;5051692;28;20075;-62
2021/03/31 10:47:14;;;;;;;12.50;4.90;;;;;;;20.85;27.49;99510.03;5051838;28;20040;-62
2021/03/31 10:49:45;;;;;;;9.27;5.78;;;;;;;20.95;27.21;99504.84;5051594;28;20457;-63
2021/03/31 10:52:16;;;;;;;9.73;5.50;;;;;;;20.96;27.00;99501.91;5051951;28;20037;-62
2021/03/31 10:54:43;;;;;;;8.38;5.32;;;;;;;21.02;27.26;99498.25;5051617;28;20052;-61
2021/03/31 10:57:12;;;;;;;14.05;6.65;;;;;;;21.16;27.20;99497.91;5051940;28;20048;-63
2021/03/31 10:59:39;;;;;;;8.98;5.10;;;;;;;21.19;26.75;99495.56;5052048;28;20132;-64
2021/03/31 11:02:06;;;;;;;11.45;6.30;;;;;;;21.21;26.78;99492.63;5051651;28;20068;-63
2021/03/31 11:04:33;;;;;;;12.80;5.03;;;;;;;21.25;26.50;99489.19;5051469;28;20491;-63
2021/03/31 11:07:01;;;;;;;10.85;5.88;;;;;;;21.36;26.30;99484.81;5050256;28;20511;-62
2021/03/31 11:09:28;;;;;;;10.70;5.32;;;;;;;21.52;25.95;99477.78;5051476;28;20055;-61
2021/03/31 11:11:55;;;;;;;10.48;5.95;;;;;;;21.58;26.02;99473.28;5051860;28;20067;-64
2021/03/31 11:14:22;;;;;;;9.93;4.95;;;;;;;21.63;25.87;99470.66;5051564;28;20071;-63
2021/03/31 11:16:51;;;;;;;10.70;5.32;;;;;;;21.66;25.86;99470.97;5051788;28;20127;-62
2021/03/31 11:19:33;;;;;;;11.23;5.72;;;;;;;21.70;26.11;99466.72;5051546;28;20116;-63
2021/03/31 11:27:31;;;;;;;8.32;5.03;;;;;;;22.04;25.43;99455.00;5055529;28;20041;-62
2021/03/31 11:30:02;;;;;;;7.80;5.00;;;;;;;22.04;25.16;99455.00;5054429;28;20462;-62
2021/03/31 11:32:29;;;;;;;6.65;4.93;;;;;;;22.12;24.65;99460.75;5055468;28;20049;-62
2021/03/31 11:34:55;;;;;;;7.63;4.57;;;;;;;22.15;24.81;99443.34;5055113;28;20057;-63
2021/03/31 11:37:23;;;;;;;7.72;4.28;;;;;;;22.21;24.78;99450.41;5055156;28;20052;-63
2021/03/31 11:39:50;;;;;;;9.05;4.60;;;;;;;22.28;24.47;99445.63;5055215;28;20498;-63
2021/03/31 11:42:16;;;;;;;10.30;4.75;;;;;;;22.35;24.81;99445.44;5055333;28;20048;-63
2021/03/31 11:44:43;;;;;;;11.88;4.68;;;;;;;22.41;24.88;99445.25;5055119;28;20052;-62
2021/03/31 11:47:10;;;;;;;8.55;3.78;;;;;;;22.56;23.35;99435.66;5055094;28;20044;-64
2021/03/31 11:49:36;;;;;;;6.80;3.85;;;;;;;22.69;23.62;99427.97;5054865;28;20045;-61
2021/03/31 11:52:04;;;;;;;7.60;3.42;;;;;;;22.78;23.19;99419.41;5055858;28;20047;-63
2021/03/31 11:54:31;;;;;;;10.23;3.83;;;;;;;22.90;23.15;99420.03;5057172;28;20076;-64
2021/03/31 11:56:59;;;;;;;5.78;3.55;;;;;;;23.08;22.48;99421.56;5055982;28;20411;-62